createdAt,value
2022-11-01T00:01:07.996Z,97685.84
2022-11-01T00:03:34.707Z,97680.88
2022-11-01T00:06:01.342Z,97683.66
2022-11-01T00:08:28.116Z,97680.78
2022-11-01T00:11:02.378Z,97642.88
2022-11-01T00:13:29.109Z,97678.47
2022-11-01T00:15:55.664Z,97680.09
2022-11-01T00:18:22.321Z,97640.56
2022-11-01T00:20:48.917Z,97674.81
2022-11-01T00:23:15.642Z,97686.53
2022-11-01T00:25:42.228Z,97675.97
2022-11-01T00:28:08.960Z,97696.41
2022-11-01T00:30:39.616Z,97673.75
2022-11-01T00:33:06.768Z,97685.22
2022-11-01T00:35:34.313Z,97656.50
2022-11-01T00:38:01.251Z,97676.09
2022-11-01T00:40:28.092Z,97605.47
2022-11-01T00:42:55.625Z,97642.31
2022-11-01T00:45:22.202Z,97594.84
2022-11-01T00:47:48.816Z,97668.81
2022-11-01T00:50:15.604Z,97631.09
2022-11-01T00:52:42.149Z,97594.53
2022-11-01T00:55:09.270Z,97615.00
2022-11-01T00:57:35.912Z,97649.16
2022-11-01T01:00:04.190Z,97673.22
2022-11-01T01:02:30.966Z,97655.97
2022-11-01T01:04:57.852Z,97626.78
2022-11-01T01:07:24.413Z,97656.81
2022-11-01T01:09:51.023Z,97545.13
2022-11-01T01:12:17.567Z,97673.06
2022-11-01T01:14:44.131Z,97651.25
2022-11-01T01:17:10.820Z,97645.97
2022-11-01T01:19:37.397Z,97664.00
2022-11-01T01:22:04.310Z,97660.16
2022-11-01T01:24:32.409Z,97658.75
2022-11-01T01:26:59.634Z,97661.50
2022-11-01T01:29:26.320Z,97670.63
2022-11-01T01:31:52.955Z,97622.72
2022-11-01T01:34:19.608Z,97670.75
2022-11-01T01:36:47.034Z,97611.13
2022-11-01T01:39:13.959Z,97604.63
2022-11-01T01:41:58.810Z,97661.53
2022-11-01T01:44:47.538Z,97665.47
2022-11-01T01:47:19.434Z,97610.09
2022-11-01T01:49:48.713Z,97559.69
2022-11-01T01:52:15.703Z,97634.63
2022-11-01T01:54:42.766Z,97636.09
2022-11-01T01:57:09.849Z,97677.09
2022-11-01T01:59:37.621Z,97668.13
2022-11-01T02:02:04.679Z,97645.81
2022-11-01T02:04:54.687Z,97601.59
2022-11-01T02:07:21.325Z,97667.66
2022-11-01T02:09:48.196Z,97665.38
2022-11-01T02:12:15.057Z,97667.09
2022-11-01T02:14:44.053Z,97599.84
2022-11-01T02:17:28.245Z,97684.25
2022-11-01T02:20:08.096Z,97682.34
2022-11-01T02:25:32.229Z,97686.97
2022-11-01T02:28:20.313Z,97682.34
2022-11-01T02:31:33.277Z,97689.88
2022-11-01T02:34:08.437Z,97683.97
2022-11-01T02:37:00.374Z,97610.56
2022-11-01T02:39:34.354Z,97687.69
2022-11-01T02:42:15.398Z,97679.16
2022-11-01T02:44:49.202Z,97687.22
2022-11-01T02:47:16.792Z,97669.22
2022-11-01T02:49:46.534Z,97676.16
2022-11-01T02:52:17.772Z,97717.38
2022-11-01T02:54:48.921Z,97642.72
2022-11-01T02:57:37.637Z,97642.75
2022-11-01T03:00:22.918Z,97677.09
2022-11-01T03:02:55.027Z,97710.72
2022-11-01T03:05:41.278Z,97702.34
2022-11-01T03:08:12.365Z,97604.59
2022-11-01T03:11:03.895Z,97705.69
2022-11-01T03:13:40.142Z,97703.38
2022-11-01T03:16:28.451Z,97706.94
2022-11-01T03:19:07.123Z,97703.72
2022-11-01T03:21:41.807Z,97690.13
2022-11-01T03:24:26.591Z,97666.63
2022-11-01T03:27:17.237Z,97642.44
2022-11-01T03:29:56.384Z,97683.78
2022-11-01T03:32:27.465Z,97608.81
2022-11-01T03:34:54.819Z,97710.50
2022-11-01T03:37:21.909Z,97600.19
2022-11-01T03:39:52.832Z,97701.88
2022-11-01T03:42:23.101Z,97714.50
2022-11-01T03:44:56.005Z,97701.09
2022-11-01T03:47:22.692Z,97620.44
2022-11-01T03:50:15.094Z,97718.03
2022-11-01T03:52:41.817Z,97638.72
2022-11-01T03:55:18.241Z,97709.94
2022-11-01T03:57:46.005Z,97707.34
2022-11-01T04:00:27.310Z,97712.78
2022-11-01T04:02:55.240Z,97704.28
2022-11-01T04:05:23.624Z,97712.91
2022-11-01T04:07:51.565Z,97614.00
2022-11-01T04:10:19.390Z,97709.72
2022-11-01T04:12:47.449Z,97707.94
2022-11-01T04:15:33.656Z,97711.41
2022-11-01T04:21:10.863Z,97716.88
2022-11-01T04:23:37.865Z,97714.31
2022-11-01T04:26:05.772Z,97710.28
2022-11-01T04:28:32.362Z,97677.41
2022-11-01T04:30:59.086Z,97717.97
2022-11-01T04:33:25.688Z,97695.13
2022-11-01T04:35:52.352Z,97668.38
2022-11-01T04:38:18.906Z,97709.59
2022-11-01T04:40:45.549Z,97727.69
2022-11-01T04:43:13.108Z,97645.50
2022-11-01T04:45:40.388Z,97722.06
2022-11-01T04:48:16.877Z,97645.22
2022-11-01T04:50:45.498Z,97626.09
2022-11-01T04:53:12.433Z,97587.16
2022-11-01T04:55:39.422Z,97742.25
2022-11-01T04:58:06.789Z,97708.19
2022-11-01T05:00:34.395Z,97651.44
2022-11-01T05:03:06.645Z,97722.75
2022-11-01T05:05:34.992Z,97700.34
2022-11-01T05:08:12.977Z,97734.97
2022-11-01T05:10:42.433Z,97732.22
2022-11-01T05:13:10.472Z,97728.91
2022-11-01T05:15:40.244Z,97676.41
2022-11-01T05:18:14.585Z,97737.34
2022-11-01T05:20:41.179Z,97739.91
2022-11-01T05:23:09.201Z,97693.78
2022-11-01T05:25:38.160Z,97731.91
2022-11-01T05:28:08.414Z,97723.63
2022-11-01T05:30:36.062Z,97736.75
2022-11-01T05:33:05.116Z,97733.06
2022-11-01T05:35:33.178Z,97706.13
2022-11-01T05:38:01.440Z,97744.63
2022-11-01T05:40:28.625Z,97741.41
2022-11-01T05:42:55.443Z,97749.91
2022-11-01T05:45:22.033Z,97730.34
2022-11-01T05:47:48.586Z,97733.09
2022-11-01T05:50:16.354Z,97734.94
2022-11-01T05:52:43.710Z,97749.22
2022-11-01T05:55:10.973Z,97656.63
2022-11-01T05:57:37.704Z,97753.19
2022-11-01T06:00:06.406Z,97740.03
2022-11-01T06:02:33.399Z,97731.50
2022-11-01T06:05:03.113Z,97761.06
2022-11-01T06:07:30.131Z,97748.78
2022-11-01T06:09:56.805Z,97673.34
2022-11-01T06:12:25.567Z,97764.31
2022-11-01T06:14:52.284Z,97755.50
2022-11-01T06:17:19.109Z,97765.81
2022-11-01T06:19:45.713Z,97629.56
2022-11-01T06:22:12.358Z,97787.66
2022-11-01T06:24:38.952Z,97765.81
2022-11-01T06:27:08.591Z,97757.53
2022-11-01T06:29:38.171Z,97764.47
2022-11-01T06:32:05.240Z,97726.81
2022-11-01T06:34:32.093Z,97761.34
2022-11-01T06:36:58.825Z,97768.50
2022-11-01T06:39:25.873Z,97768.59
2022-11-01T06:41:52.500Z,97744.63
2022-11-01T06:44:19.059Z,97757.97
2022-11-01T06:46:45.723Z,97765.59
2022-11-01T06:49:16.349Z,97708.78
2022-11-01T06:51:45.713Z,97282.25
2022-11-01T06:54:12.366Z,97678.50
2022-11-01T06:56:39.041Z,97751.72
2022-11-01T06:59:05.923Z,97663.06
2022-11-01T07:01:33.354Z,97727.63
2022-11-01T07:04:00.034Z,97758.97
2022-11-01T07:06:30.907Z,97559.38
2022-11-01T07:08:59.076Z,97748.69
2022-11-01T07:11:30.987Z,97755.22
2022-11-01T07:13:59.284Z,97751.00
2022-11-01T07:16:26.716Z,97650.44
2022-11-01T07:18:53.612Z,97738.88
2022-11-01T07:21:20.287Z,97724.16
2022-11-01T07:23:47.089Z,97759.59
2022-11-01T07:26:13.771Z,97745.69
2022-11-01T07:28:40.808Z,97753.06
2022-11-01T07:31:08.093Z,97734.72
2022-11-01T07:33:35.057Z,97744.41
2022-11-01T07:36:02.653Z,97725.22
2022-11-01T07:38:29.749Z,97739.63
2022-11-01T07:40:56.680Z,97641.19
2022-11-01T07:43:23.585Z,97705.31
2022-11-01T07:45:50.720Z,97424.47
2022-11-01T07:48:18.998Z,97736.59
2022-11-01T07:50:46.475Z,97676.56
2022-11-01T07:53:14.722Z,97726.16
2022-11-01T07:55:41.853Z,97620.53
2022-11-01T07:58:09.589Z,97706.06
2022-11-01T08:00:36.983Z,97694.03
2022-11-01T08:03:30.986Z,97720.00
2022-11-01T08:05:57.879Z,97635.56
2022-11-01T08:08:24.630Z,97719.91
2022-11-01T08:10:51.456Z,97739.81
2022-11-01T08:13:23.121Z,97733.78
2022-11-01T08:15:50.995Z,97737.69
2022-11-01T08:18:19.014Z,97453.97
2022-11-01T08:20:45.753Z,97571.38
2022-11-01T08:23:12.838Z,97586.50
2022-11-01T08:25:39.575Z,97683.75
2022-11-01T08:28:12.839Z,97679.66
2022-11-01T08:30:42.263Z,97657.97
2022-11-01T08:33:09.274Z,97405.16
2022-11-01T08:35:35.987Z,97699.28
2022-11-01T08:38:05.584Z,97642.13
2022-11-01T08:40:33.922Z,97689.06
2022-11-01T08:43:01.344Z,97703.19
2022-11-01T08:45:29.172Z,97689.72
2022-11-01T08:48:05.131Z,97651.34
2022-11-01T08:50:33.963Z,97654.66
2022-11-01T08:53:19.647Z,97600.94
2022-11-01T08:55:46.245Z,97680.16
2022-11-01T08:58:13.049Z,97616.50
2022-11-01T09:00:39.713Z,97623.31
2022-11-01T09:03:06.409Z,97658.28
2022-11-01T09:05:33.094Z,97679.53
2022-11-01T09:08:01.272Z,97640.16
2022-11-01T09:10:30.961Z,97676.59
2022-11-01T09:13:02.020Z,97633.25
2022-11-01T09:15:29.459Z,97596.41
2022-11-01T09:17:56.176Z,97609.63
2022-11-01T09:20:24.111Z,97658.13
2022-11-01T09:22:52.552Z,97616.38
2022-11-01T09:25:19.430Z,97647.16
2022-11-01T09:27:45.997Z,97647.56
2022-11-01T09:30:12.790Z,97625.13
2022-11-01T09:32:39.465Z,97484.94
2022-11-01T09:35:06.897Z,97612.31
2022-11-01T09:37:33.686Z,97637.13
2022-11-01T09:40:00.267Z,97634.81
2022-11-01T09:42:35.801Z,97632.16
2022-11-01T09:45:17.546Z,97624.97
2022-11-01T09:47:48.872Z,97626.88
2022-11-01T09:50:30.170Z,97631.28
2022-11-01T09:52:57.642Z,97616.25
2022-11-01T09:55:57.542Z,97625.16
2022-11-01T09:58:43.345Z,97615.28
2022-11-01T10:01:39.672Z,97610.66
2022-11-01T10:04:15.328Z,97607.47
2022-11-01T10:06:54.338Z,97601.06
2022-11-01T10:09:45.007Z,97600.13
2022-11-01T10:12:47.014Z,97601.53
2022-11-01T10:15:31.932Z,97592.78
2022-11-01T10:18:10.379Z,97591.59
2022-11-01T10:20:40.351Z,97586.63
2022-11-01T10:23:07.176Z,97582.03
2022-11-01T10:25:38.858Z,97582.25
2022-11-01T10:28:54.696Z,97582.16
2022-11-01T10:31:24.718Z,97572.81
2022-11-01T10:34:00.038Z,97575.16
2022-11-01T10:36:40.057Z,97569.09
2022-11-01T10:42:09.950Z,97562.06
2022-11-01T10:44:42.964Z,97569.91
2022-11-01T10:47:16.412Z,97563.88
2022-11-01T10:50:04.804Z,97565.00
2022-11-01T10:52:39.478Z,97566.50
2022-11-01T10:55:07.710Z,97497.44
2022-11-01T10:57:46.387Z,97548.25
2022-11-01T11:00:19.227Z,97551.88
2022-11-01T11:02:58.739Z,97542.66
2022-11-01T11:05:29.202Z,97533.69
2022-11-01T11:07:57.589Z,97480.41
2022-11-01T11:10:27.311Z,97537.44
2022-11-01T11:13:03.067Z,97455.56
2022-11-01T11:15:39.709Z,97507.56
2022-11-01T11:18:14.855Z,97523.38
2022-11-01T11:20:42.013Z,97492.41
2022-11-01T11:23:12.940Z,97505.16
2022-11-01T11:25:42.215Z,97509.03
2022-11-01T11:28:29.465Z,97512.88
2022-11-01T11:30:57.257Z,97507.34
2022-11-01T11:33:24.128Z,97434.22
2022-11-01T11:35:57.876Z,97504.50
2022-11-01T11:38:45.669Z,97503.09
2022-11-01T11:41:27.247Z,97483.22
2022-11-01T11:43:53.889Z,97495.84
2022-11-01T11:46:26.602Z,97453.16
2022-11-01T11:49:04.340Z,97494.41
2022-11-01T11:51:34.686Z,97486.66
2022-11-01T11:54:10.318Z,97485.06
2022-11-01T11:56:37.087Z,97476.34
2022-11-01T11:59:11.173Z,97511.47
2022-11-01T12:01:38.022Z,97419.53
2022-11-01T12:04:19.185Z,97376.81
2022-11-01T12:06:46.783Z,97462.88
2022-11-01T12:09:43.724Z,97478.47
2022-11-01T12:12:19.468Z,97479.47
2022-11-01T12:14:46.231Z,97454.13
2022-11-01T12:17:46.009Z,97478.91
2022-11-01T12:20:22.252Z,97469.06
2022-11-01T12:23:02.389Z,97471.34
2022-11-01T12:25:29.554Z,97474.50
2022-11-01T12:28:02.695Z,97480.50
2022-11-01T12:30:33.515Z,97452.94
2022-11-01T12:33:06.125Z,97477.06
2022-11-01T12:35:38.190Z,97470.81
2022-11-01T12:38:29.546Z,97471.47
2022-11-01T12:41:02.345Z,97349.63
2022-11-01T12:43:38.399Z,97442.16
2022-11-01T12:46:15.167Z,97472.63
2022-11-01T12:48:50.860Z,97478.34
2022-11-01T12:51:26.244Z,97395.66
2022-11-01T12:54:06.328Z,97469.53
2022-11-01T12:56:33.247Z,97475.44
2022-11-01T12:59:00.268Z,97476.81
2022-11-01T13:01:45.426Z,97466.81
2022-11-01T13:04:31.613Z,97461.03
2022-11-01T13:07:19.839Z,97469.31
2022-11-01T13:10:02.877Z,97380.31
2022-11-01T13:12:50.778Z,97467.94
2022-11-01T13:15:42.397Z,97431.56
2022-11-01T13:18:39.725Z,97484.41
2022-11-01T13:21:15.748Z,97426.25
2022-11-01T13:23:50.815Z,97475.88
2022-11-01T13:26:24.778Z,97472.59
2022-11-01T13:31:43.571Z,97470.88
2022-11-01T13:34:28.767Z,97464.28
2022-11-01T13:37:29.433Z,97467.47
2022-11-01T13:40:18.813Z,97449.47
2022-11-01T13:43:12.726Z,97457.75
2022-11-01T13:45:58.771Z,97467.72
2022-11-01T13:48:47.064Z,97467.06
2022-11-01T13:51:25.795Z,97460.69
2022-11-01T13:54:24.133Z,97455.16
2022-11-01T13:57:15.539Z,97424.84
2022-11-01T13:59:45.149Z,97458.84
2022-11-01T14:02:24.306Z,97464.75
2022-11-01T14:05:02.043Z,97415.66
2022-11-01T14:07:53.985Z,97455.78
2022-11-01T14:10:20.594Z,97452.69
2022-11-01T14:13:07.206Z,97417.47
2022-11-01T14:15:59.359Z,97360.59
2022-11-01T14:18:26.689Z,97417.63
2022-11-01T14:20:54.861Z,97452.91
2022-11-01T14:23:31.535Z,97454.41
2022-11-01T14:26:24.672Z,97460.38
2022-11-01T14:28:55.138Z,97498.50
2022-11-01T14:31:25.041Z,97382.97
2022-11-01T14:33:57.410Z,97467.44
2022-11-01T14:36:29.178Z,97420.31
2022-11-01T14:39:02.714Z,97471.38
2022-11-01T14:41:34.906Z,97466.03
2022-11-01T14:44:12.104Z,97399.09
2022-11-01T14:46:46.238Z,97381.81
2022-11-01T14:49:25.074Z,97468.69
2022-11-01T14:52:06.995Z,97465.50
2022-11-01T14:54:33.518Z,97425.31
2022-11-01T14:57:00.924Z,97436.22
2022-11-01T14:59:32.098Z,97455.88
2022-11-01T15:02:05.396Z,97469.56
2022-11-01T15:04:39.359Z,97487.97
2022-11-01T15:07:18.359Z,97465.06
2022-11-01T15:09:57.369Z,97478.19
2022-11-01T15:12:25.254Z,97465.13
2022-11-01T15:14:52.354Z,97471.94
2022-11-01T15:17:21.972Z,97494.69
2022-11-01T15:19:52.524Z,97490.25
2022-11-01T15:22:23.801Z,97495.38
2022-11-01T15:24:58.198Z,97493.91
2022-11-01T15:27:32.183Z,97495.47
2022-11-01T15:29:58.980Z,97452.91
2022-11-01T15:32:30.946Z,97504.84
2022-11-01T15:35:00.157Z,97500.16
2022-11-01T15:37:32.469Z,97501.19
2022-11-01T15:42:34.710Z,97502.41
2022-11-01T15:45:28.087Z,97509.66
2022-11-01T15:47:55.839Z,97505.75
2022-11-01T15:50:22.614Z,97491.47
2022-11-01T15:52:50.141Z,97505.81
2022-11-01T15:55:16.640Z,97512.47
2022-11-01T15:57:46.162Z,97514.63
2022-11-01T16:00:23.517Z,97513.91
2022-11-01T16:02:59.007Z,97514.44
2022-11-01T16:05:30.528Z,97519.31
2022-11-01T16:07:57.642Z,97523.34
2022-11-01T16:10:28.017Z,97505.84
2022-11-01T16:12:56.161Z,97527.81
2022-11-01T16:15:27.315Z,97532.25
2022-11-01T16:17:57.297Z,97530.63
2022-11-01T16:20:38.092Z,97532.34
2022-11-01T16:23:06.772Z,97534.78
2022-11-01T16:25:37.451Z,97464.47
2022-11-01T16:28:31.625Z,97539.28
2022-11-01T16:30:58.295Z,97471.72
2022-11-01T16:33:44.581Z,97510.09
2022-11-01T16:36:20.389Z,97564.91
2022-11-01T16:38:52.000Z,97103.59
2022-11-01T16:41:20.644Z,97565.28
2022-11-01T16:43:55.936Z,97494.94
2022-11-01T16:46:24.939Z,97574.13
2022-11-01T16:48:58.716Z,97526.09
2022-11-01T16:51:30.359Z,97577.69
2022-11-01T16:53:58.739Z,97578.09
2022-11-01T16:56:36.560Z,97522.34
2022-11-01T16:59:14.012Z,97565.97
2022-11-01T17:01:40.823Z,97501.53
2022-11-01T17:04:11.281Z,97585.16
2022-11-01T17:06:39.300Z,97590.69
2022-11-01T17:09:12.424Z,97585.81
2022-11-01T17:11:39.042Z,97511.38
2022-11-01T17:14:05.696Z,97595.38
2022-11-01T17:16:32.458Z,97513.56
2022-11-01T17:19:00.433Z,97586.41
2022-11-01T17:21:30.874Z,97597.25
2022-11-01T17:23:57.767Z,97587.16
2022-11-01T17:26:24.466Z,97583.94
2022-11-01T17:28:52.541Z,97596.69
2022-11-01T17:31:19.470Z,97588.59
2022-11-01T17:33:46.125Z,97595.38
2022-11-01T17:36:17.128Z,97563.56
2022-11-01T17:38:44.933Z,97515.50
2022-11-01T17:41:17.245Z,97590.72
2022-11-01T17:43:43.875Z,97591.19
2022-11-01T17:46:17.384Z,97558.84
2022-11-01T17:48:43.962Z,97598.03
2022-11-01T17:51:10.534Z,97597.88
2022-11-01T17:53:39.375Z,97602.69
2022-11-01T17:56:06.753Z,97605.91
2022-11-01T17:58:33.336Z,97604.25
2022-11-01T18:01:00.749Z,97626.50
2022-11-01T18:03:27.458Z,97628.34
2022-11-01T18:05:59.441Z,97607.19
2022-11-01T18:08:27.857Z,97596.78
2022-11-01T18:11:06.529Z,97607.03
2022-11-01T18:13:55.801Z,97602.31
2022-11-01T18:16:41.193Z,97619.72
2022-11-01T18:19:26.239Z,97599.75
2022-11-01T18:22:14.834Z,97550.63
2022-11-01T18:24:44.484Z,97601.94
2022-11-01T18:27:12.424Z,97604.19
2022-11-01T18:29:41.774Z,97608.22
2022-11-01T18:32:23.912Z,97602.56
2022-11-01T18:35:19.210Z,97602.50
2022-11-01T18:37:54.818Z,97595.31
2022-11-01T18:40:27.521Z,97601.56
2022-11-01T18:42:54.814Z,97546.25
2022-11-01T18:45:30.954Z,97595.84
2022-11-01T18:48:19.781Z,97610.91
2022-11-01T18:50:46.298Z,97599.13
2022-11-01T18:53:15.769Z,97486.31
2022-11-01T18:55:44.578Z,97612.22
2022-11-01T18:58:22.330Z,97591.59
2022-11-01T19:01:15.701Z,97605.91
2022-11-01T19:03:42.751Z,97606.66
2022-11-01T19:06:20.645Z,97607.41
2022-11-01T19:08:54.197Z,97522.53
2022-11-01T19:11:20.741Z,97616.34
2022-11-01T19:13:49.500Z,97633.09
2022-11-01T19:16:18.826Z,97600.22
2022-11-01T19:18:48.080Z,97622.81
2022-11-01T19:21:17.352Z,97597.13
2022-11-01T19:23:46.252Z,97621.16
2022-11-01T19:26:36.969Z,97619.50
2022-11-01T19:29:12.888Z,97621.84
2022-11-01T19:31:40.160Z,97619.38
2022-11-01T19:34:16.297Z,97564.88
2022-11-01T19:36:44.464Z,97582.13
2022-11-01T19:39:17.110Z,97616.28
2022-11-01T19:41:44.931Z,97621.00
2022-11-01T19:44:16.690Z,97587.25
2022-11-01T19:46:43.447Z,97546.88
2022-11-01T19:49:25.332Z,97638.84
2022-11-01T19:52:09.910Z,97627.84
2022-11-01T19:54:38.782Z,97621.34
2022-11-01T19:57:31.430Z,97626.72
2022-11-01T20:00:21.249Z,97629.56
2022-11-01T20:02:54.825Z,97633.09
2022-11-01T20:05:34.584Z,97636.50
2022-11-01T20:08:18.991Z,97630.06
2022-11-01T20:10:45.626Z,97621.09
2022-11-01T20:13:12.210Z,97602.13
2022-11-01T20:15:38.737Z,97623.94
2022-11-01T20:18:05.877Z,97627.75
2022-11-01T20:20:32.681Z,97540.13
2022-11-01T20:23:20.405Z,97635.53
2022-11-01T20:25:45.796Z,97574.47
2022-11-01T20:28:12.407Z,97630.75
2022-11-01T20:30:38.976Z,97605.63
2022-11-01T20:33:05.882Z,97596.06
2022-11-01T20:35:32.763Z,97607.59
2022-11-01T20:37:59.368Z,97574.16
2022-11-01T20:40:26.399Z,97628.34
2022-11-01T20:42:53.053Z,97576.06
2022-11-01T20:45:19.855Z,97624.09
2022-11-01T20:47:46.749Z,97601.31
2022-11-01T20:50:15.519Z,97628.50
2022-11-01T20:52:42.950Z,97620.91
2022-11-01T20:55:11.657Z,97624.06
2022-11-01T20:57:38.904Z,97617.53
2022-11-01T21:00:07.162Z,97620.47
2022-11-01T21:02:34.665Z,97618.88
2022-11-01T21:05:25.925Z,97624.00
2022-11-01T21:08:12.146Z,97621.06
2022-11-01T21:10:40.546Z,97622.97
2022-11-01T21:13:29.004Z,97617.84
2022-11-01T21:16:00.118Z,97594.56
2022-11-01T21:18:35.583Z,97618.25
2022-11-01T21:21:29.008Z,97617.94
2022-11-01T21:23:55.757Z,97628.66
2022-11-01T21:26:26.037Z,97607.88
2022-11-01T21:28:58.464Z,97608.06
2022-11-01T21:31:30.327Z,97612.00
2022-11-01T21:34:00.688Z,97579.38
2022-11-01T21:36:35.222Z,97614.34
2022-11-01T21:39:25.448Z,97614.16
2022-11-01T21:41:58.580Z,97473.44
2022-11-01T21:44:25.159Z,97614.28
2022-11-01T21:46:53.442Z,97612.97
2022-11-01T21:49:29.243Z,97604.00
2022-11-01T21:52:01.000Z,97521.41
2022-11-01T21:54:30.744Z,97596.38
2022-11-01T21:56:57.772Z,97596.78
2022-11-01T21:59:25.354Z,97598.59
2022-11-01T22:01:52.065Z,97596.28
2022-11-01T22:04:21.303Z,97600.00
2022-11-01T22:06:50.238Z,97500.59
2022-11-01T22:09:17.832Z,97595.41
2022-11-01T22:11:44.482Z,97575.91
2022-11-01T22:14:11.610Z,97572.59
2022-11-01T22:16:38.483Z,97593.31
2022-11-01T22:19:05.737Z,97569.22
2022-11-01T22:21:32.941Z,97569.38
2022-11-01T22:24:00.107Z,97536.34
2022-11-01T22:26:26.761Z,97529.03
2022-11-01T22:28:53.480Z,97526.34
2022-11-01T22:31:20.239Z,97580.31
2022-11-01T22:33:49.660Z,97574.94
2022-11-01T22:36:21.425Z,97585.34
2022-11-01T22:38:48.158Z,97579.88
2022-11-01T22:41:33.248Z,97570.97
2022-11-01T22:44:05.981Z,97557.91
2022-11-01T22:46:57.874Z,97573.44
2022-11-01T22:49:32.354Z,97576.03
2022-11-01T22:52:23.232Z,97546.63
2022-11-01T22:54:53.256Z,97564.44
2022-11-01T22:57:27.407Z,97566.19
2022-11-01T22:59:57.232Z,97563.56
2022-11-01T23:02:32.278Z,97564.28
2022-11-01T23:05:08.048Z,97563.69
2022-11-01T23:07:51.087Z,97560.97
2022-11-01T23:10:35.650Z,97559.06
2022-11-01T23:13:30.060Z,97613.88
2022-11-01T23:16:00.118Z,97557.84
2022-11-01T23:18:30.564Z,97568.91
2022-11-01T23:21:07.273Z,97546.78
2022-11-01T23:23:37.242Z,97558.50
2022-11-01T23:26:03.910Z,97540.19
2022-11-01T23:28:35.506Z,97533.16
2022-11-01T23:31:05.757Z,97521.72
2022-11-01T23:33:38.242Z,97436.97
2022-11-01T23:36:05.365Z,97545.03
2022-11-01T23:38:46.128Z,97558.56
2022-11-01T23:41:23.952Z,97557.84
2022-11-01T23:43:53.949Z,97540.72
2022-11-01T23:46:20.678Z,97489.66
2022-11-01T23:48:48.235Z,97559.06
2022-11-01T23:51:19.932Z,97556.75
2022-11-01T23:53:51.269Z,97563.97
2022-11-01T23:56:19.693Z,97556.31
2022-11-01T23:58:51.818Z,97550.50
